sensor_id;sensor_type;location;lat;lon;timestamp;P1;durP1;ratioP1;P2;durP2;ratioP2
15831;SDS011;8016;49.928;9.372;2022-10-16T00:01:29;1.67;;;1.10;;
15831;SDS011;8016;49.928;9.372;2022-10-16T00:03:56;1.83;;;1.20;;
15831;SDS011;8016;49.928;9.372;2022-10-16T00:06:22;3.87;;;1.40;;
15831;SDS011;8016;49.928;9.372;2022-10-16T00:08:49;1.80;;;1.30;;
15831;SDS011;8016;49.928;9.372;2022-10-16T00:11:16;2.90;;;1.50;;
15831;SDS011;8016;49.928;9.372;2022-10-16T00:13:43;3.07;;;1.40;;
15831;SDS011;8016;49.928;9.372;2022-10-16T00:16:10;3.20;;;1.50;;
15831;SDS011;8016;49.928;9.372;2022-10-16T00:18:36;1.83;;;1.17;;
15831;SDS011;8016;49.928;9.372;2022-10-16T00:21:06;2.70;;;1.13;;
15831;SDS011;8016;49.928;9.372;2022-10-16T00:23:32;2.33;;;1.20;;
15831;SDS011;8016;49.928;9.372;2022-10-16T00:26:00;1.20;;;1.10;;
15831;SDS011;8016;49.928;9.372;2022-10-16T00:28:26;1.43;;;0.80;;
15831;SDS011;8016;49.928;9.372;2022-10-16T00:30:52;3.50;;;1.87;;
15831;SDS011;8016;49.928;9.372;2022-10-16T00:33:19;1.00;;;0.77;;
15831;SDS011;8016;49.928;9.372;2022-10-16T00:35:45;2.20;;;1.00;;
15831;SDS011;8016;49.928;9.372;2022-10-16T00:38:11;1.40;;;1.07;;
15831;SDS011;8016;49.928;9.372;2022-10-16T00:40:37;0.90;;;0.90;;
15831;SDS011;8016;49.928;9.372;2022-10-16T00:43:09;0.83;;;0.80;;
15831;SDS011;8016;49.928;9.372;2022-10-16T00:45:37;2.60;;;1.00;;
15831;SDS011;8016;49.928;9.372;2022-10-16T00:48:03;4.00;;;1.47;;
15831;SDS011;8016;49.928;9.372;2022-10-16T00:50:33;2.73;;;0.77;;
15831;SDS011;8016;49.928;9.372;2022-10-16T00:53:00;1.27;;;0.60;;
15831;SDS011;8016;49.928;9.372;2022-10-16T00:55:27;2.20;;;0.80;;
15831;SDS011;8016;49.928;9.372;2022-10-16T00:57:55;1.10;;;0.50;;
15831;SDS011;8016;49.928;9.372;2022-10-16T01:00:23;2.33;;;0.60;;
15831;SDS011;8016;49.928;9.372;2022-10-16T01:02:56;0.67;;;0.50;;
15831;SDS011;8016;49.928;9.372;2022-10-16T01:05:23;0.70;;;0.60;;
15831;SDS011;8016;49.928;9.372;2022-10-16T01:08:08;1.57;;;0.50;;
15831;SDS011;8016;49.928;9.372;2022-10-16T01:18:20;1.80;;;0.60;;
15831;SDS011;8016;49.928;9.372;2022-10-16T01:23:36;0.30;;;0.30;;
15831;SDS011;8016;49.928;9.372;2022-10-16T01:28:49;5.50;;;0.73;;
15831;SDS011;8016;49.928;9.372;2022-10-16T01:31:18;0.30;;;0.30;;
15831;SDS011;8016;49.928;9.372;2022-10-16T01:33:46;1.27;;;0.70;;
15831;SDS011;8016;49.928;9.372;2022-10-16T01:36:14;0.40;;;0.40;;
15831;SDS011;8016;49.928;9.372;2022-10-16T01:38:41;0.83;;;0.70;;
15831;SDS011;8016;49.928;9.372;2022-10-16T01:41:11;2.43;;;0.47;;
15831;SDS011;8016;49.928;9.372;2022-10-16T01:43:40;0.83;;;0.57;;
15831;SDS011;8016;49.928;9.372;2022-10-16T01:46:08;2.33;;;0.50;;
15831;SDS011;8016;49.928;9.372;2022-10-16T01:48:34;1.40;;;0.43;;
15831;SDS011;8016;49.928;9.372;2022-10-16T01:51:11;0.57;;;0.57;;
15831;SDS011;8016;49.928;9.372;2022-10-16T01:53:38;1.97;;;0.67;;
15831;SDS011;8016;49.928;9.372;2022-10-16T01:56:07;0.87;;;0.60;;
15831;SDS011;8016;49.928;9.372;2022-10-16T01:58:35;3.80;;;0.50;;
15831;SDS011;8016;49.928;9.372;2022-10-16T02:01:03;1.50;;;0.50;;
15831;SDS011;8016;49.928;9.372;2022-10-16T02:03:30;1.07;;;0.47;;
15831;SDS011;8016;49.928;9.372;2022-10-16T02:05:57;0.50;;;0.50;;
15831;SDS011;8016;49.928;9.372;2022-10-16T02:08:24;2.80;;;0.70;;
15831;SDS011;8016;49.928;9.372;2022-10-16T02:10:53;3.03;;;0.53;;
15831;SDS011;8016;49.928;9.372;2022-10-16T02:13:22;1.27;;;0.60;;
15831;SDS011;8016;49.928;9.372;2022-10-16T02:15:49;2.63;;;0.80;;
15831;SDS011;8016;49.928;9.372;2022-10-16T02:18:15;0.53;;;0.50;;
15831;SDS011;8016;49.928;9.372;2022-10-16T02:21:06;3.63;;;0.60;;
15831;SDS011;8016;49.928;9.372;2022-10-16T02:23:45;3.00;;;1.13;;
15831;SDS011;8016;49.928;9.372;2022-10-16T02:26:15;2.20;;;0.80;;
15831;SDS011;8016;49.928;9.372;2022-10-16T02:28:46;0.90;;;0.70;;
15831;SDS011;8016;49.928;9.372;2022-10-16T02:31:16;3.60;;;0.70;;
15831;SDS011;8016;49.928;9.372;2022-10-16T02:33:44;1.27;;;0.80;;
15831;SDS011;8016;49.928;9.372;2022-10-16T02:36:11;4.93;;;1.43;;
15831;SDS011;8016;49.928;9.372;2022-10-16T02:38:37;2.63;;;0.73;;
15831;SDS011;8016;49.928;9.372;2022-10-16T02:41:04;1.03;;;0.70;;
15831;SDS011;8016;49.928;9.372;2022-10-16T02:43:30;0.60;;;0.60;;
15831;SDS011;8016;49.928;9.372;2022-10-16T02:45:57;1.43;;;0.60;;
15831;SDS011;8016;49.928;9.372;2022-10-16T02:48:23;1.60;;;1.00;;
15831;SDS011;8016;49.928;9.372;2022-10-16T02:50:48;3.73;;;0.80;;
15831;SDS011;8016;49.928;9.372;2022-10-16T02:53:14;4.17;;;0.90;;
15831;SDS011;8016;49.928;9.372;2022-10-16T02:55:40;2.77;;;0.70;;
15831;SDS011;8016;49.928;9.372;2022-10-16T02:58:06;0.97;;;0.77;;
15831;SDS011;8016;49.928;9.372;2022-10-16T03:00:32;1.70;;;0.90;;
15831;SDS011;8016;49.928;9.372;2022-10-16T03:02:58;1.70;;;0.80;;
15831;SDS011;8016;49.928;9.372;2022-10-16T03:05:24;3.10;;;1.00;;
15831;SDS011;8016;49.928;9.372;2022-10-16T03:07:50;2.43;;;0.90;;
15831;SDS011;8016;49.928;9.372;2022-10-16T03:10:17;2.93;;;1.00;;
15831;SDS011;8016;49.928;9.372;2022-10-16T03:12:43;1.33;;;0.70;;
15831;SDS011;8016;49.928;9.372;2022-10-16T03:15:09;2.13;;;1.07;;
15831;SDS011;8016;49.928;9.372;2022-10-16T03:17:35;4.57;;;1.10;;
15831;SDS011;8016;49.928;9.372;2022-10-16T03:20:02;3.20;;;1.30;;
15831;SDS011;8016;49.928;9.372;2022-10-16T03:22:28;4.73;;;1.10;;
15831;SDS011;8016;49.928;9.372;2022-10-16T03:24:54;2.17;;;0.97;;
15831;SDS011;8016;49.928;9.372;2022-10-16T03:27:20;1.73;;;1.00;;
15831;SDS011;8016;49.928;9.372;2022-10-16T03:29:46;4.10;;;1.10;;
15831;SDS011;8016;49.928;9.372;2022-10-16T03:32:12;1.60;;;1.10;;
15831;SDS011;8016;49.928;9.372;2022-10-16T03:34:38;2.63;;;1.20;;
15831;SDS011;8016;49.928;9.372;2022-10-16T03:37:04;7.43;;;2.10;;
15831;SDS011;8016;49.928;9.372;2022-10-16T03:39:30;2.60;;;1.00;;
15831;SDS011;8016;49.928;9.372;2022-10-16T03:41:56;3.07;;;1.10;;
15831;SDS011;8016;49.928;9.372;2022-10-16T03:44:21;6.73;;;1.03;;
15831;SDS011;8016;49.928;9.372;2022-10-16T03:46:47;3.23;;;0.87;;
15831;SDS011;8016;49.928;9.372;2022-10-16T03:49:13;2.93;;;0.90;;
15831;SDS011;8016;49.928;9.372;2022-10-16T03:51:39;3.80;;;1.07;;
15831;SDS011;8016;49.928;9.372;2022-10-16T03:54:05;5.27;;;1.33;;
15831;SDS011;8016;49.928;9.372;2022-10-16T03:56:31;2.73;;;1.00;;
15831;SDS011;8016;49.928;9.372;2022-10-16T03:58:57;5.93;;;1.17;;
15831;SDS011;8016;49.928;9.372;2022-10-16T04:01:23;1.50;;;1.03;;
15831;SDS011;8016;49.928;9.372;2022-10-16T04:03:49;1.87;;;1.10;;
15831;SDS011;8016;49.928;9.372;2022-10-16T04:06:15;1.77;;;1.07;;
15831;SDS011;8016;49.928;9.372;2022-10-16T04:08:42;2.30;;;1.10;;
15831;SDS011;8016;49.928;9.372;2022-10-16T04:11:08;3.53;;;1.40;;
15831;SDS011;8016;49.928;9.372;2022-10-16T04:13:34;2.70;;;1.20;;
15831;SDS011;8016;49.928;9.372;2022-10-16T04:16:00;2.73;;;1.23;;
15831;SDS011;8016;49.928;9.372;2022-10-16T04:18:26;3.23;;;1.20;;
15831;SDS011;8016;49.928;9.372;2022-10-16T04:20:53;5.53;;;1.37;;
15831;SDS011;8016;49.928;9.372;2022-10-16T04:23:19;3.23;;;1.23;;
15831;SDS011;8016;49.928;9.372;2022-10-16T04:25:45;6.70;;;1.03;;
15831;SDS011;8016;49.928;9.372;2022-10-16T04:28:10;4.33;;;1.20;;
15831;SDS011;8016;49.928;9.372;2022-10-16T04:30:40;4.33;;;1.60;;
15831;SDS011;8016;49.928;9.372;2022-10-16T04:33:06;1.70;;;1.40;;
15831;SDS011;8016;49.928;9.372;2022-10-16T04:35:31;1.43;;;1.20;;
15831;SDS011;8016;49.928;9.372;2022-10-16T04:37:58;3.73;;;1.40;;
15831;SDS011;8016;49.928;9.372;2022-10-16T04:40:24;2.97;;;1.23;;
15831;SDS011;8016;49.928;9.372;2022-10-16T04:42:50;2.00;;;1.27;;
15831;SDS011;8016;49.928;9.372;2022-10-16T04:45:16;4.70;;;1.30;;
15831;SDS011;8016;49.928;9.372;2022-10-16T04:47:42;3.37;;;1.37;;
15831;SDS011;8016;49.928;9.372;2022-10-16T04:50:08;3.20;;;1.40;;
15831;SDS011;8016;49.928;9.372;2022-10-16T04:52:34;1.50;;;1.40;;
15831;SDS011;8016;49.928;9.372;2022-10-16T04:55:00;3.83;;;1.13;;
15831;SDS011;8016;49.928;9.372;2022-10-16T04:57:27;2.63;;;1.40;;
15831;SDS011;8016;49.928;9.372;2022-10-16T04:59:54;5.43;;;1.43;;
15831;SDS011;8016;49.928;9.372;2022-10-16T05:02:20;5.10;;;1.47;;
15831;SDS011;8016;49.928;9.372;2022-10-16T05:04:45;2.90;;;1.47;;
15831;SDS011;8016;49.928;9.372;2022-10-16T05:07:11;1.97;;;1.40;;
15831;SDS011;8016;49.928;9.372;2022-10-16T05:09:37;2.37;;;1.53;;
15831;SDS011;8016;49.928;9.372;2022-10-16T05:12:03;1.23;;;1.17;;
15831;SDS011;8016;49.928;9.372;2022-10-16T05:14:29;7.07;;;1.60;;
15831;SDS011;8016;49.928;9.372;2022-10-16T05:16:56;10.87;;;1.73;;
15831;SDS011;8016;49.928;9.372;2022-10-16T05:19:22;10.43;;;1.97;;
15831;SDS011;8016;49.928;9.372;2022-10-16T05:21:48;8.17;;;1.83;;
15831;SDS011;8016;49.928;9.372;2022-10-16T05:24:14;6.53;;;1.60;;
15831;SDS011;8016;49.928;9.372;2022-10-16T05:26:39;6.63;;;2.17;;
15831;SDS011;8016;49.928;9.372;2022-10-16T05:29:05;5.87;;;2.47;;
15831;SDS011;8016;49.928;9.372;2022-10-16T05:31:31;8.27;;;1.70;;
15831;SDS011;8016;49.928;9.372;2022-10-16T05:34:01;12.30;;;2.33;;
15831;SDS011;8016;49.928;9.372;2022-10-16T05:36:27;5.33;;;2.13;;
15831;SDS011;8016;49.928;9.372;2022-10-16T05:38:53;8.53;;;1.80;;
15831;SDS011;8016;49.928;9.372;2022-10-16T05:41:19;8.03;;;1.73;;
15831;SDS011;8016;49.928;9.372;2022-10-16T05:43:47;6.03;;;1.80;;
15831;SDS011;8016;49.928;9.372;2022-10-16T05:46:13;5.63;;;1.90;;
15831;SDS011;8016;49.928;9.372;2022-10-16T05:48:39;5.63;;;1.73;;
15831;SDS011;8016;49.928;9.372;2022-10-16T05:51:06;7.33;;;1.80;;
15831;SDS011;8016;49.928;9.372;2022-10-16T05:53:33;4.40;;;1.43;;
15831;SDS011;8016;49.928;9.372;2022-10-16T05:55:59;5.67;;;2.00;;
15831;SDS011;8016;49.928;9.372;2022-10-16T05:58:28;8.60;;;1.90;;
15831;SDS011;8016;49.928;9.372;2022-10-16T06:00:59;3.40;;;1.63;;
15831;SDS011;8016;49.928;9.372;2022-10-16T06:03:25;7.80;;;2.30;;
15831;SDS011;8016;49.928;9.372;2022-10-16T06:05:51;8.05;;;3.53;;
15831;SDS011;8016;49.928;9.372;2022-10-16T06:08:18;12.63;;;5.80;;
15831;SDS011;8016;49.928;9.372;2022-10-16T06:10:44;33.67;;;22.80;;
15831;SDS011;8016;49.928;9.372;2022-10-16T06:13:10;13.97;;;7.73;;
15831;SDS011;8016;49.928;9.372;2022-10-16T06:15:37;6.03;;;4.37;;
15831;SDS011;8016;49.928;9.372;2022-10-16T06:18:04;14.07;;;7.47;;
15831;SDS011;8016;49.928;9.372;2022-10-16T06:20:30;22.37;;;11.70;;
15831;SDS011;8016;49.928;9.372;2022-10-16T06:22:56;20.40;;;14.20;;
15831;SDS011;8016;49.928;9.372;2022-10-16T06:25:22;22.80;;;13.60;;
15831;SDS011;8016;49.928;9.372;2022-10-16T06:27:48;26.17;;;15.33;;
15831;SDS011;8016;49.928;9.372;2022-10-16T06:30:14;29.53;;;16.60;;
15831;SDS011;8016;49.928;9.372;2022-10-16T06:32:40;23.87;;;16.70;;
15831;SDS011;8016;49.928;9.372;2022-10-16T06:35:06;19.90;;;14.13;;
15831;SDS011;8016;49.928;9.372;2022-10-16T06:37:32;12.93;;;6.83;;
15831;SDS011;8016;49.928;9.372;2022-10-16T06:39:58;12.53;;;6.73;;
15831;SDS011;8016;49.928;9.372;2022-10-16T06:42:25;10.10;;;6.40;;
15831;SDS011;8016;49.928;9.372;2022-10-16T06:44:51;9.27;;;4.87;;
15831;SDS011;8016;49.928;9.372;2022-10-16T06:47:16;8.00;;;4.07;;
15831;SDS011;8016;49.928;9.372;2022-10-16T06:49:42;5.03;;;3.87;;
15831;SDS011;8016;49.928;9.372;2022-10-16T06:52:08;8.70;;;4.17;;
15831;SDS011;8016;49.928;9.372;2022-10-16T06:54:34;8.50;;;3.50;;
15831;SDS011;8016;49.928;9.372;2022-10-16T06:57:00;5.43;;;2.60;;
15831;SDS011;8016;49.928;9.372;2022-10-16T06:59:27;4.37;;;2.33;;
15831;SDS011;8016;49.928;9.372;2022-10-16T07:01:53;3.00;;;2.70;;
15831;SDS011;8016;49.928;9.372;2022-10-16T07:04:19;4.50;;;2.60;;
15831;SDS011;8016;49.928;9.372;2022-10-16T07:06:45;3.23;;;2.07;;
15831;SDS011;8016;49.928;9.372;2022-10-16T07:09:11;3.97;;;1.50;;
15831;SDS011;8016;49.928;9.372;2022-10-16T07:11:38;3.77;;;1.40;;
15831;SDS011;8016;49.928;9.372;2022-10-16T07:14:05;34.50;;;21.77;;
15831;SDS011;8016;49.928;9.372;2022-10-16T07:16:31;14.77;;;5.73;;
15831;SDS011;8016;49.928;9.372;2022-10-16T07:18:58;10.93;;;3.43;;
15831;SDS011;8016;49.928;9.372;2022-10-16T07:21:29;9.93;;;9.07;;
15831;SDS011;8016;49.928;9.372;2022-10-16T07:23:59;99.10;;;72.93;;
15831;SDS011;8016;49.928;9.372;2022-10-16T07:26:29;43.80;;;33.27;;
15831;SDS011;8016;49.928;9.372;2022-10-16T07:28:56;20.80;;;14.90;;
15831;SDS011;8016;49.928;9.372;2022-10-16T07:31:23;52.87;;;40.97;;
15831;SDS011;8016;49.928;9.372;2022-10-16T07:33:49;59.70;;;48.13;;
15831;SDS011;8016;49.928;9.372;2022-10-16T07:36:17;34.83;;;21.90;;
15831;SDS011;8016;49.928;9.372;2022-10-16T07:38:43;28.33;;;18.30;;
15831;SDS011;8016;49.928;9.372;2022-10-16T07:41:11;14.47;;;9.20;;
15831;SDS011;8016;49.928;9.372;2022-10-16T07:43:37;24.73;;;19.77;;
15831;SDS011;8016;49.928;9.372;2022-10-16T07:46:03;25.20;;;22.63;;
15831;SDS011;8016;49.928;9.372;2022-10-16T07:48:30;17.20;;;15.17;;
15831;SDS011;8016;49.928;9.372;2022-10-16T07:50:57;18.37;;;13.30;;
15831;SDS011;8016;49.928;9.372;2022-10-16T07:53:24;5.43;;;3.80;;
15831;SDS011;8016;49.928;9.372;2022-10-16T07:55:50;6.90;;;2.50;;
15831;SDS011;8016;49.928;9.372;2022-10-16T07:58:16;5.40;;;1.80;;
15831;SDS011;8016;49.928;9.372;2022-10-16T08:00:42;2.27;;;1.50;;
15831;SDS011;8016;49.928;9.372;2022-10-16T08:03:08;5.17;;;3.20;;
15831;SDS011;8016;49.928;9.372;2022-10-16T08:05:34;3.53;;;1.50;;
15831;SDS011;8016;49.928;9.372;2022-10-16T08:08:01;4.40;;;1.47;;
15831;SDS011;8016;49.928;9.372;2022-10-16T08:10:27;5.23;;;0.70;;
15831;SDS011;8016;49.928;9.372;2022-10-16T08:12:54;3.27;;;1.00;;
15831;SDS011;8016;49.928;9.372;2022-10-16T08:15:20;3.83;;;1.67;;
15831;SDS011;8016;49.928;9.372;2022-10-16T08:17:56;4.33;;;1.10;;
15831;SDS011;8016;49.928;9.372;2022-10-16T08:20:22;2.87;;;1.57;;
15831;SDS011;8016;49.928;9.372;2022-10-16T08:22:48;5.87;;;2.03;;
15831;SDS011;8016;49.928;9.372;2022-10-16T08:25:14;3.53;;;1.97;;
15831;SDS011;8016;49.928;9.372;2022-10-16T08:27:40;4.00;;;1.80;;
15831;SDS011;8016;49.928;9.372;2022-10-16T08:30:06;3.90;;;2.40;;
15831;SDS011;8016;49.928;9.372;2022-10-16T08:32:32;1.63;;;1.53;;
15831;SDS011;8016;49.928;9.372;2022-10-16T08:34:58;5.60;;;1.87;;
15831;SDS011;8016;49.928;9.372;2022-10-16T08:37:24;4.63;;;1.70;;
15831;SDS011;8016;49.928;9.372;2022-10-16T08:39:50;2.67;;;1.60;;
15831;SDS011;8016;49.928;9.372;2022-10-16T08:47:31;3.10;;;1.77;;
15831;SDS011;8016;49.928;9.372;2022-10-16T08:50:02;2.10;;;1.10;;
15831;SDS011;8016;49.928;9.372;2022-10-16T08:52:34;1.50;;;1.20;;
15831;SDS011;8016;49.928;9.372;2022-10-16T08:55:01;3.73;;;1.00;;
15831;SDS011;8016;49.928;9.372;2022-10-16T08:57:27;2.80;;;1.00;;
15831;SDS011;8016;49.928;9.372;2022-10-16T08:59:54;2.40;;;1.33;;
15831;SDS011;8016;49.928;9.372;2022-10-16T09:02:38;6.70;;;1.50;;
15831;SDS011;8016;49.928;9.372;2022-10-16T09:12:37;2.73;;;1.87;;
15831;SDS011;8016;49.928;9.372;2022-10-16T09:25:36;2.53;;;1.80;;
15831;SDS011;8016;49.928;9.372;2022-10-16T09:28:03;2.30;;;1.40;;
15831;SDS011;8016;49.928;9.372;2022-10-16T09:30:29;4.83;;;2.27;;
15831;SDS011;8016;49.928;9.372;2022-10-16T09:32:55;2.47;;;1.80;;
15831;SDS011;8016;49.928;9.372;2022-10-16T09:35:27;2.33;;;1.10;;
15831;SDS011;8016;49.928;9.372;2022-10-16T09:37:56;2.07;;;1.37;;
15831;SDS011;8016;49.928;9.372;2022-10-16T09:42:52;8.33;;;4.60;;
15831;SDS011;8016;49.928;9.372;2022-10-16T09:45:21;4.43;;;1.97;;
15831;SDS011;8016;49.928;9.372;2022-10-16T09:47:48;4.32;;;2.00;;
15831;SDS011;8016;49.928;9.372;2022-10-16T09:50:24;2.90;;;1.50;;
15831;SDS011;8016;49.928;9.372;2022-10-16T09:53:02;2.33;;;1.70;;
15831;SDS011;8016;49.928;9.372;2022-10-16T09:55:29;3.77;;;1.70;;
15831;SDS011;8016;49.928;9.372;2022-10-16T09:57:55;3.13;;;2.37;;
15831;SDS011;8016;49.928;9.372;2022-10-16T10:00:21;3.80;;;2.47;;
15831;SDS011;8016;49.928;9.372;2022-10-16T10:02:48;2.57;;;1.57;;
15831;SDS011;8016;49.928;9.372;2022-10-16T10:05:18;3.60;;;1.70;;
15831;SDS011;8016;49.928;9.372;2022-10-16T10:07:45;2.20;;;1.20;;
15831;SDS011;8016;49.928;9.372;2022-10-16T10:10:21;2.53;;;2.00;;
15831;SDS011;8016;49.928;9.372;2022-10-16T10:12:47;3.13;;;1.50;;
15831;SDS011;8016;49.928;9.372;2022-10-16T10:15:14;2.07;;;1.73;;
15831;SDS011;8016;49.928;9.372;2022-10-16T10:17:47;13.23;;;11.43;;
15831;SDS011;8016;49.928;9.372;2022-10-16T10:22:59;1.50;;;1.40;;
15831;SDS011;8016;49.928;9.372;2022-10-16T10:25:28;5.27;;;4.77;;
15831;SDS011;8016;49.928;9.372;2022-10-16T10:35:52;10.97;;;7.57;;
15831;SDS011;8016;49.928;9.372;2022-10-16T10:40:54;2.57;;;2.03;;
15831;SDS011;8016;49.928;9.372;2022-10-16T10:43:27;1.67;;;0.90;;
15831;SDS011;8016;49.928;9.372;2022-10-16T10:45:58;2.17;;;1.10;;
15831;SDS011;8016;49.928;9.372;2022-10-16T10:50:57;2.20;;;1.33;;
15831;SDS011;8016;49.928;9.372;2022-10-16T11:02:23;1.67;;;1.00;;
15831;SDS011;8016;49.928;9.372;2022-10-16T11:04:38;1.57;;;0.83;;
15831;SDS011;8016;49.928;9.372;2022-10-16T11:07:10;2.43;;;1.30;;
15831;SDS011;8016;49.928;9.372;2022-10-16T11:09:41;1.00;;;0.87;;
15831;SDS011;8016;49.928;9.372;2022-10-16T11:14:46;2.70;;;0.90;;
15831;SDS011;8016;49.928;9.372;2022-10-16T11:17:15;2.93;;;0.90;;
15831;SDS011;8016;49.928;9.372;2022-10-16T11:19:54;1.70;;;0.87;;
15831;SDS011;8016;49.928;9.372;2022-10-16T11:24:52;2.23;;;1.10;;
15831;SDS011;8016;49.928;9.372;2022-10-16T11:27:27;2.30;;;1.17;;
15831;SDS011;8016;49.928;9.372;2022-10-16T11:30:01;1.03;;;0.93;;
15831;SDS011;8016;49.928;9.372;2022-10-16T11:32:28;0.90;;;0.80;;
15831;SDS011;8016;49.928;9.372;2022-10-16T11:35:00;2.30;;;0.80;;
15831;SDS011;8016;49.928;9.372;2022-10-16T11:37:32;4.17;;;0.70;;
15831;SDS011;8016;49.928;9.372;2022-10-16T11:40:03;3.17;;;0.80;;
15831;SDS011;8016;49.928;9.372;2022-10-16T11:42:36;0.53;;;0.53;;
15831;SDS011;8016;49.928;9.372;2022-10-16T11:47:37;0.97;;;0.80;;
15831;SDS011;8016;49.928;9.372;2022-10-16T11:50:20;1.90;;;0.90;;
15831;SDS011;8016;49.928;9.372;2022-10-16T11:55:21;3.33;;;0.83;;
15831;SDS011;8016;49.928;9.372;2022-10-16T11:58:06;12.10;;;7.00;;
15831;SDS011;8016;49.928;9.372;2022-10-16T12:00:39;2.57;;;2.30;;
15831;SDS011;8016;49.928;9.372;2022-10-16T12:03:24;1.30;;;1.10;;
15831;SDS011;8016;49.928;9.372;2022-10-16T12:06:00;2.90;;;0.80;;
15831;SDS011;8016;49.928;9.372;2022-10-16T12:08:28;1.20;;;0.90;;
15831;SDS011;8016;49.928;9.372;2022-10-16T12:11:03;4.17;;;0.90;;
15831;SDS011;8016;49.928;9.372;2022-10-16T12:13:35;1.03;;;0.90;;
15831;SDS011;8016;49.928;9.372;2022-10-16T12:16:06;1.10;;;0.90;;
15831;SDS011;8016;49.928;9.372;2022-10-16T12:18:32;1.07;;;0.80;;
15831;SDS011;8016;49.928;9.372;2022-10-16T12:20:59;1.83;;;1.23;;
15831;SDS011;8016;49.928;9.372;2022-10-16T12:23:30;2.47;;;1.30;;
15831;SDS011;8016;49.928;9.372;2022-10-16T12:26:00;3.00;;;1.50;;
15831;SDS011;8016;49.928;9.372;2022-10-16T12:28:28;3.03;;;1.90;;
15831;SDS011;8016;49.928;9.372;2022-10-16T12:30:56;2.30;;;1.10;;
15831;SDS011;8016;49.928;9.372;2022-10-16T12:33:24;2.67;;;1.13;;
15831;SDS011;8016;49.928;9.372;2022-10-16T12:35:51;3.17;;;1.30;;
15831;SDS011;8016;49.928;9.372;2022-10-16T12:38:36;4.00;;;1.10;;
15831;SDS011;8016;49.928;9.372;2022-10-16T12:41:07;1.73;;;1.40;;
15831;SDS011;8016;49.928;9.372;2022-10-16T12:43:46;3.33;;;1.00;;
15831;SDS011;8016;49.928;9.372;2022-10-16T12:48:40;3.00;;;1.73;;
15831;SDS011;8016;49.928;9.372;2022-10-16T12:51:25;2.90;;;1.13;;
15831;SDS011;8016;49.928;9.372;2022-10-16T12:53:59;3.90;;;1.33;;
15831;SDS011;8016;49.928;9.372;2022-10-16T12:56:28;1.77;;;1.10;;
15831;SDS011;8016;49.928;9.372;2022-10-16T12:59:04;1.43;;;1.20;;
15831;SDS011;8016;49.928;9.372;2022-10-16T13:01:41;4.97;;;1.60;;
15831;SDS011;8016;49.928;9.372;2022-10-16T13:06:41;1.40;;;1.00;;
15831;SDS011;8016;49.928;9.372;2022-10-16T13:14:26;5.70;;;2.13;;
15831;SDS011;8016;49.928;9.372;2022-10-16T13:19:24;1.40;;;1.30;;
15831;SDS011;8016;49.928;9.372;2022-10-16T13:22:16;3.00;;;0.93;;
15831;SDS011;8016;49.928;9.372;2022-10-16T13:32:38;5.53;;;5.03;;
15831;SDS011;8016;49.928;9.372;2022-10-16T13:35:15;14.10;;;10.70;;
15831;SDS011;8016;49.928;9.372;2022-10-16T13:37:43;3.13;;;2.37;;
15831;SDS011;8016;49.928;9.372;2022-10-16T13:40:18;39.27;;;33.17;;
15831;SDS011;8016;49.928;9.372;2022-10-16T13:42:44;3.03;;;1.47;;
15831;SDS011;8016;49.928;9.372;2022-10-16T13:45:20;16.17;;;14.67;;
15831;SDS011;8016;49.928;9.372;2022-10-16T13:47:46;13.30;;;10.90;;
15831;SDS011;8016;49.928;9.372;2022-10-16T13:50:13;5.10;;;4.20;;
15831;SDS011;8016;49.928;9.372;2022-10-16T13:52:40;5.17;;;3.23;;
15831;SDS011;8016;49.928;9.372;2022-10-16T13:55:16;5.53;;;2.33;;
15831;SDS011;8016;49.928;9.372;2022-10-16T13:57:43;3.57;;;2.70;;
15831;SDS011;8016;49.928;9.372;2022-10-16T14:00:22;2.53;;;2.03;;
15831;SDS011;8016;49.928;9.372;2022-10-16T14:02:53;2.63;;;2.40;;
15831;SDS011;8016;49.928;9.372;2022-10-16T14:05:21;4.27;;;2.07;;
15831;SDS011;8016;49.928;9.372;2022-10-16T14:07:48;4.17;;;1.80;;
15831;SDS011;8016;49.928;9.372;2022-10-16T14:13:13;4.10;;;2.80;;
15831;SDS011;8016;49.928;9.372;2022-10-16T14:15:45;3.57;;;2.30;;
15831;SDS011;8016;49.928;9.372;2022-10-16T14:18:19;3.83;;;1.30;;
15831;SDS011;8016;49.928;9.372;2022-10-16T14:20:45;5.93;;;1.70;;
15831;SDS011;8016;49.928;9.372;2022-10-16T14:23:22;2.83;;;1.40;;
15831;SDS011;8016;49.928;9.372;2022-10-16T14:25:48;4.13;;;1.47;;
15831;SDS011;8016;49.928;9.372;2022-10-16T14:30:54;4.90;;;1.97;;
15831;SDS011;8016;49.928;9.372;2022-10-16T14:33:24;3.63;;;1.87;;
15831;SDS011;8016;49.928;9.372;2022-10-16T14:38:26;1.73;;;1.60;;
15831;SDS011;8016;49.928;9.372;2022-10-16T14:40:52;4.23;;;2.57;;
15831;SDS011;8016;49.928;9.372;2022-10-16T14:43:22;5.53;;;1.70;;
15831;SDS011;8016;49.928;9.372;2022-10-16T14:45:54;8.80;;;5.43;;
15831;SDS011;8016;49.928;9.372;2022-10-16T14:48:21;9.30;;;6.33;;
15831;SDS011;8016;49.928;9.372;2022-10-16T14:50:47;4.23;;;2.63;;
15831;SDS011;8016;49.928;9.372;2022-10-16T14:53:13;4.60;;;2.50;;
15831;SDS011;8016;49.928;9.372;2022-10-16T14:55:39;5.27;;;2.73;;
15831;SDS011;8016;49.928;9.372;2022-10-16T14:58:09;3.53;;;2.20;;
15831;SDS011;8016;49.928;9.372;2022-10-16T15:00:39;5.77;;;1.97;;
15831;SDS011;8016;49.928;9.372;2022-10-16T15:03:05;11.43;;;2.20;;
15831;SDS011;8016;49.928;9.372;2022-10-16T15:05:31;5.77;;;2.00;;
15831;SDS011;8016;49.928;9.372;2022-10-16T15:07:57;5.83;;;1.90;;
15831;SDS011;8016;49.928;9.372;2022-10-16T15:10:24;12.77;;;2.20;;
15831;SDS011;8016;49.928;9.372;2022-10-16T15:12:52;3.23;;;2.57;;
15831;SDS011;8016;49.928;9.372;2022-10-16T15:17:52;2.83;;;1.70;;
15831;SDS011;8016;49.928;9.372;2022-10-16T15:20:20;10.27;;;2.07;;
15831;SDS011;8016;49.928;9.372;2022-10-16T15:22:46;12.63;;;2.70;;
15831;SDS011;8016;49.928;9.372;2022-10-16T15:27:58;7.53;;;3.00;;
15831;SDS011;8016;49.928;9.372;2022-10-16T15:30:24;7.30;;;2.60;;
15831;SDS011;8016;49.928;9.372;2022-10-16T15:32:50;10.20;;;2.37;;
15831;SDS011;8016;49.928;9.372;2022-10-16T15:35:16;7.83;;;2.30;;
15831;SDS011;8016;49.928;9.372;2022-10-16T15:37:42;15.47;;;2.57;;
15831;SDS011;8016;49.928;9.372;2022-10-16T15:40:09;6.27;;;2.43;;
15831;SDS011;8016;49.928;9.372;2022-10-16T15:42:35;10.33;;;2.70;;
15831;SDS011;8016;49.928;9.372;2022-10-16T15:45:01;6.37;;;4.00;;
15831;SDS011;8016;49.928;9.372;2022-10-16T15:47:28;7.97;;;5.03;;
15831;SDS011;8016;49.928;9.372;2022-10-16T15:49:54;14.33;;;8.77;;
15831;SDS011;8016;49.928;9.372;2022-10-16T15:52:20;13.90;;;5.03;;
15831;SDS011;8016;49.928;9.372;2022-10-16T15:54:46;12.80;;;3.57;;
15831;SDS011;8016;49.928;9.372;2022-10-16T15:57:12;9.20;;;3.00;;
15831;SDS011;8016;49.928;9.372;2022-10-16T15:59:38;8.60;;;2.53;;
15831;SDS011;8016;49.928;9.372;2022-10-16T16:02:04;13.53;;;2.80;;
15831;SDS011;8016;49.928;9.372;2022-10-16T16:04:30;10.03;;;3.10;;
15831;SDS011;8016;49.928;9.372;2022-10-16T16:06:56;10.13;;;4.97;;
15831;SDS011;8016;49.928;9.372;2022-10-16T16:09:22;7.50;;;3.13;;
15831;SDS011;8016;49.928;9.372;2022-10-16T16:11:48;11.07;;;3.87;;
15831;SDS011;8016;49.928;9.372;2022-10-16T16:14:16;10.93;;;2.90;;
15831;SDS011;8016;49.928;9.372;2022-10-16T16:16:42;16.97;;;3.53;;
15831;SDS011;8016;49.928;9.372;2022-10-16T16:19:08;10.53;;;3.93;;
15831;SDS011;8016;49.928;9.372;2022-10-16T16:21:34;12.97;;;3.37;;
15831;SDS011;8016;49.928;9.372;2022-10-16T16:24:00;13.87;;;3.13;;
15831;SDS011;8016;49.928;9.372;2022-10-16T16:26:32;5.27;;;2.80;;
15831;SDS011;8016;49.928;9.372;2022-10-16T16:29:01;4.27;;;2.00;;
15831;SDS011;8016;49.928;9.372;2022-10-16T16:31:28;4.87;;;2.17;;
15831;SDS011;8016;49.928;9.372;2022-10-16T16:33:54;14.20;;;12.77;;
15831;SDS011;8016;49.928;9.372;2022-10-16T16:36:21;18.03;;;13.50;;
15831;SDS011;8016;49.928;9.372;2022-10-16T16:38:47;9.63;;;7.80;;
15831;SDS011;8016;49.928;9.372;2022-10-16T16:41:17;3.60;;;2.67;;
15831;SDS011;8016;49.928;9.372;2022-10-16T16:43:43;8.90;;;3.33;;
15831;SDS011;8016;49.928;9.372;2022-10-16T16:46:10;4.10;;;2.70;;
15831;SDS011;8016;49.928;9.372;2022-10-16T16:48:36;5.60;;;2.40;;
15831;SDS011;8016;49.928;9.372;2022-10-16T16:51:06;6.80;;;2.97;;